Time,TemperatureF,DewpointF,PressureIn,WindDirection,WindDirectionDegrees,WindSpeedMPH,WindSpeedGustMPH,Humidity,HourlyPrecipIn,Conditions,Clouds,dailyrainin,SoftwareType,DateUTC
2013-07-11 00:04:00,70.1,-35.2,29.96,West,280,0.0,4.0,1,0.00,,,0.00,Wunderground v.1.15,2013-07-11 05:04:00,
2013-07-11 00:10:00,70.2,-35.1,29.96,West,280,0.0,4.0,1,0.00,,,0.00,Wunderground v.1.15,2013-07-11 05:10:00,
2013-07-11 00:15:00,70.1,-35.2,29.96,West,280,0.0,4.0,1,0.00,,,0.00,Wunderground v.1.15,2013-07-11 05:15:00,
2013-07-11 00:24:00,70.0,-35.2,29.96,West,280,0.0,4.0,1,0.00,,,0.00,Wunderground v.1.15,2013-07-11 05:24:00,
2013-07-11 00:29:00,70.1,-35.2,29.95,NW,309,0.0,4.0,1,0.00,,,0.00,Wunderground v.1.15,2013-07-11 05:29:00,
2013-07-11 00:34:00,70.4,-35.0,29.95,NW,308,0.0,4.0,1,0.00,,,0.00,Wunderground v.1.15,2013-07-11 05:34:00,
2013-07-11 00:44:00,71.1,-34.5,29.95,WSW,240,0.0,4.0,1,0.00,,,0.00,Wunderground v.1.15,2013-07-11 05:44:00,
2013-07-11 00:55:00,72.1,-33.9,29.95,WNW,287,0.0,4.0,1,0.00,,,0.00,Wunderground v.1.15,2013-07-11 05:55:00,
2013-07-11 01:05:00,72.8,-33.5,29.95,NNE,27,0.0,4.0,1,0.00,,,0.00,Wunderground v.1.15,2013-07-11 06:05:00,
2013-07-11 01:14:00,73.2,-33.3,29.95,NW,316,0.0,4.0,1,0.00,,,0.00,Wunderground v.1.15,2013-07-11 06:14:00,
2013-07-11 01:24:00,73.4,-33.2,29.96,NW,304,0.0,4.0,1,0.00,,,0.00,Wunderground v.1.15,2013-07-11 06:24:00,
2013-07-11 01:29:00,73.3,-33.2,29.95,NW,318,0.0,4.0,1,0.00,,,0.00,Wunderground v.1.15,2013-07-11 06:29:00,
2013-07-11 01:39:00,72.9,-33.5,29.95,North,349,0.0,4.0,1,0.00,,,0.00,Wunderground v.1.15,2013-07-11 06:39:00,
2013-07-11 01:49:00,72.7,-33.6,29.95,West,268,0.0,4.0,1,0.00,,,0.00,Wunderground v.1.15,2013-07-11 06:49:00,
2013-07-11 01:59:00,72.5,-33.7,29.95,NW,316,0.0,4.0,1,0.00,,,0.00,Wunderground v.1.15,2013-07-11 06:59:00,
2013-07-11 02:09:00,72.4,-33.8,29.96,NW,313,0.0,4.0,1,0.00,,,0.00,Wunderground v.1.15,2013-07-11 07:09:00,
2013-07-11 02:15:00,72.4,-33.8,29.96,NW,320,0.0,4.0,1,0.00,,,0.00,Wunderground v.1.15,2013-07-11 07:15:00,
2013-07-11 02:24:00,72.1,-33.9,29.96,NW,304,0.0,4.0,1,0.00,,,0.00,Wunderground v.1.15,2013-07-11 07:24:00,
2013-07-11 02:34:00,71.9,-34.1,29.96,North,356,0.0,4.0,1,0.00,,,0.00,Wunderground v.1.15,2013-07-11 07:34:00,
2013-07-11 02:44:00,71.8,-34.1,29.97,WNW,286,0.0,4.0,1,0.00,,,0.00,Wunderground v.1.15,2013-07-11 07:44:00,
2013-07-11 02:49:00,71.7,-34.2,29.97,West,276,0.0,4.0,1,0.00,,,0.00,Wunderground v.1.15,2013-07-11 07:49:00,
2013-07-11 02:55:00,71.6,-34.2,29.97,WNW,293,0.0,4.0,1,0.00,,,0.00,Wunderground v.1.15,2013-07-11 07:55:00,
2013-07-11 03:00:00,71.5,-34.3,29.97,NNW,345,0.0,4.0,1,0.00,,,0.00,Wunderground v.1.15,2013-07-11 08:00:00,
2013-07-11 03:05:00,71.3,-34.4,29.97,NW,319,0.0,4.0,1,0.00,,,0.00,Wunderground v.1.15,2013-07-11 08:05:00,
2013-07-11 03:10:00,71.1,-34.5,29.97,West,280,0.0,4.0,1,0.00,,,0.00,Wunderground v.1.15,2013-07-11 08:10:00,
2013-07-11 03:19:00,70.7,-34.8,29.97,West,280,0.0,4.0,1,0.00,,,0.00,Wunderground v.1.15,2013-07-11 08:19:00,
2013-07-11 03:29:00,70.4,-35.0,29.98,West,281,0.0,4.0,1,0.00,,,0.00,Wunderground v.1.15,2013-07-11 08:29:00,
2013-07-11 03:39:00,70.4,-35.0,29.98,WNW,285,0.0,4.0,1,0.00,,,0.00,Wunderground v.1.15,2013-07-11 08:39:00,
2013-07-11 03:44:00,70.3,-35.0,29.98,WNW,303,0.0,4.0,1,0.00,,,0.00,Wunderground v.1.15,2013-07-11 08:44:00,
2013-07-11 03:49:00,70.3,-35.0,29.98,NNW,340,0.0,4.0,1,0.00,,,0.00,Wunderground v.1.15,2013-07-11 08:49:00,
2013-07-11 03:59:00,69.7,-35.4,29.98,NNW,327,0.0,4.0,1,0.00,,,0.00,Wunderground v.1.15,2013-07-11 08:59:00,
2013-07-11 04:04:00,69.5,-35.5,29.98,NW,307,0.0,4.0,1,0.00,,,0.00,Wunderground v.1.15,2013-07-11 09:04:00,
2013-07-11 04:14:00,69.6,-35.5,29.98,West,281,0.0,4.0,1,0.00,,,0.00,Wunderground v.1.15,2013-07-11 09:14:00,
2013-07-11 04:20:00,69.6,-35.5,29.98,WNW,290,0.0,4.0,1,0.00,,,0.00,Wunderground v.1.15,2013-07-11 09:20:00,
2013-07-11 04:29:00,69.5,-35.5,29.98,WNW,288,0.0,4.0,1,0.00,,,0.00,Wunderground v.1.15,2013-07-11 09:29:00,
2013-07-11 04:34:00,69.5,-35.5,29.98,NW,317,0.0,4.0,1,0.00,,,0.00,Wunderground v.1.15,2013-07-11 09:34:00,
2013-07-11 04:44:00,69.4,-35.6,29.98,NW,316,0.0,4.0,1,0.00,,,0.00,Wunderground v.1.15,2013-07-11 09:44:00,
2013-07-11 04:54:00,69.1,-35.8,29.98,NNW,335,0.0,4.0,1,0.00,,,0.00,Wunderground v.1.15,2013-07-11 09:54:00,
2013-07-11 04:59:00,69.0,-35.8,29.98,North,358,0.0,4.0,1,0.00,,,0.00,Wunderground v.1.15,2013-07-11 09:59:00,
2013-07-11 05:05:00,68.9,-35.9,29.98,West,281,0.0,4.0,1,0.00,,,0.00,Wunderground v.1.15,2013-07-11 10:05:00,
2013-07-11 05:10:00,68.8,-35.9,29.98,NW,309,0.0,4.0,1,0.00,,,0.00,Wunderground v.1.15,2013-07-11 10:10:00,
2013-07-11 05:19:00,68.9,-35.9,29.98,NNW,340,0.0,4.0,1,0.00,,,0.00,Wunderground v.1.15,2013-07-11 10:19:00,
2013-07-11 05:24:00,68.9,-35.9,29.98,NW,322,0.0,4.0,1,0.00,,,0.00,Wunderground v.1.15,2013-07-11 10:24:00,
2013-07-11 05:34:00,68.7,-36.0,29.98,WNW,291,0.0,4.0,1,0.00,,,0.00,Wunderground v.1.15,2013-07-11 10:34:00,
2013-07-11 05:39:00,68.6,-36.1,29.99,WSW,250,0.0,4.0,1,0.00,,,0.00,Wunderground v.1.15,2013-07-11 10:39:00,
2013-07-11 05:50:00,68.5,-36.1,29.99,NW,309,0.0,4.0,1,0.00,,,0.00,Wunderground v.1.15,2013-07-11 10:50:00,
2013-07-11 05:55:00,68.4,-36.2,29.99,WSW,253,0.0,4.0,1,0.00,,,0.00,Wunderground v.1.15,2013-07-11 10:55:00,
2013-07-11 06:04:00,68.3,-36.2,30.00,WNW,303,0.0,4.0,1,0.00,,,0.00,Wunderground v.1.15,2013-07-11 11:04:00,
2013-07-11 06:14:00,68.0,-36.4,30.00,NW,304,0.0,4.0,1,0.00,,,0.00,Wunderground v.1.15,2013-07-11 11:14:00,
2013-07-11 06:24:00,67.7,-36.6,30.01,NW,304,0.0,4.0,1,0.00,,,0.00,Wunderground v.1.15,2013-07-11 11:24:00,
2013-07-11 06:30:00,67.8,-36.6,30.00,NW,304,0.0,4.0,1,0.00,,,0.00,Wunderground v.1.15,2013-07-11 11:30:00,
2013-07-11 06:35:00,68.1,-36.4,30.00,WNW,303,0.0,4.0,1,0.00,,,0.00,Wunderground v.1.15,2013-07-11 11:35:00,
2013-07-11 06:44:00,69.1,-35.8,30.00,NW,311,0.0,4.0,1,0.00,,,0.00,Wunderground v.1.15,2013-07-11 11:44:00,
2013-07-11 06:54:00,69.8,-35.3,30.00,NNW,347,0.0,4.0,1,0.00,,,0.00,Wunderground v.1.15,2013-07-11 11:54:00,
2013-07-11 07:04:00,70.6,-34.9,30.00,West,281,0.0,4.0,1,0.00,,,0.00,Wunderground v.1.15,2013-07-11 12:04:00,
2013-07-11 07:09:00,70.8,-34.7,30.00,West,267,0.0,4.0,1,0.00,,,0.00,Wunderground v.1.15,2013-07-11 12:09:00,
2013-07-11 07:15:00,71.2,-34.5,30.00,NW,314,1.0,4.0,1,0.00,,,0.00,Wunderground v.1.15,2013-07-11 12:15:00,
2013-07-11 07:24:00,72.1,-33.9,30.00,WNW,297,1.0,4.0,1,0.00,,,0.00,Wunderground v.1.15,2013-07-11 12:24:00,
2013-07-11 07:29:00,71.9,-34.1,30.00,NNW,342,1.0,1.0,1,0.00,,,0.00,Wunderground v.1.15,2013-07-11 12:29:00,
2013-07-11 07:39:00,72.7,-33.6,30.01,WNW,287,0.0,4.0,1,0.00,,,0.00,Wunderground v.1.15,2013-07-11 12:39:00,
2013-07-11 07:50:00,72.9,-33.5,30.01,NNW,345,1.0,4.0,1,0.00,,,0.00,Wunderground v.1.15,2013-07-11 12:50:00,
2013-07-11 08:00:00,72.9,-33.5,30.01,NW,307,1.0,1.0,1,0.00,,,0.00,Wunderground v.1.15,2013-07-11 13:00:00,
2013-07-11 08:09:00,73.5,-33.1,30.01,NW,321,1.0,4.0,1,0.00,,,0.00,Wunderground v.1.15,2013-07-11 13:09:00,
2013-07-11 08:19:00,73.5,-33.1,30.01,North,1,2.0,2.0,1,0.00,,,0.00,Wunderground v.1.15,2013-07-11 13:19:00,
2013-07-11 08:29:00,73.9,-32.9,30.01,NNW,340,2.0,4.0,1,0.00,,,0.00,Wunderground v.1.15,2013-07-11 13:29:00,
2013-07-11 08:35:00,74.2,-32.7,30.01,WNW,286,2.0,4.0,1,0.00,,,0.00,Wunderground v.1.15,2013-07-11 13:35:00,
2013-07-11 08:45:00,74.8,-32.3,30.01,West,266,2.0,2.0,1,0.00,,,0.00,Wunderground v.1.15,2013-07-11 13:45:00,
2013-07-11 08:54:00,75.4,-31.9,30.02,WNW,287,1.0,4.0,1,0.00,,,0.00,Wunderground v.1.15,2013-07-11 13:54:00,
2013-07-11 09:04:00,75.8,-31.7,30.02,NW,317,2.0,4.0,1,0.00,,,0.00,Wunderground v.1.15,2013-07-11 14:04:00,
2013-07-11 09:14:00,76.4,-31.3,30.02,NNE,25,2.0,4.0,1,0.00,,,0.00,Wunderground v.1.15,2013-07-11 14:14:00,
2013-07-11 09:20:00,76.6,-31.2,30.01,NNW,332,2.0,4.0,1,0.00,,,0.00,Wunderground v.1.15,2013-07-11 14:20:00,
2013-07-11 09:29:00,76.9,-31.0,30.01,NNE,22,2.0,2.0,1,0.00,,,0.00,Wunderground v.1.15,2013-07-11 14:29:00,
2013-07-11 09:39:00,77.1,-30.9,30.01,NNE,32,3.0,4.0,1,0.00,,,0.00,Wunderground v.1.15,2013-07-11 14:39:00,
2013-07-11 09:49:00,77.6,-30.6,30.01,WNW,288,2.0,2.0,1,0.00,,,0.00,Wunderground v.1.15,2013-07-11 14:49:00,
2013-07-11 10:04:00,78.2,-30.3,30.01,NNE,19,2.0,5.0,1,0.00,,,0.00,Wunderground v.1.15,2013-07-11 15:04:00,
2013-07-11 10:14:00,78.6,-30.0,30.01,WNW,288,2.0,3.0,1,0.00,,,0.00,Wunderground v.1.15,2013-07-11 15:14:00,
2013-07-11 10:19:00,78.8,-29.9,30.01,WNW,283,2.0,2.0,1,0.00,,,0.00,Wunderground v.1.15,2013-07-11 15:19:00,
2013-07-11 10:29:00,79.3,-29.6,30.01,West,265,2.0,4.0,1,0.00,,,0.00,Wunderground v.1.15,2013-07-11 15:29:00,
2013-07-11 10:35:00,79.3,20.2,30.01,North,355,3.0,4.0,11,0.00,,,0.00,Wunderground v.1.15,2013-07-11 15:35:00,
2013-07-11 10:45:00,79.7,22.6,30.01,NE,35,2.0,4.0,12,0.00,,,0.00,Wunderground v.1.15,2013-07-11 15:45:00,
2013-07-11 10:54:00,80.0,24.7,30.01,NNW,329,2.0,4.0,13,0.00,,,0.00,Wunderground v.1.15,2013-07-11 15:54:00,
2013-07-11 11:04:00,80.2,41.2,30.01,NW,316,2.0,4.0,25,0.00,,,0.00,Wunderground v.1.15,2013-07-11 16:04:00,
2013-07-11 11:14:00,81.0,46.6,30.01,WNW,285,1.0,4.0,30,0.00,,,0.00,Wunderground v.1.15,2013-07-11 16:14:00,
2013-07-11 11:20:00,80.9,43.8,30.01,NE,47,2.0,4.0,27,0.00,,,0.00,Wunderground v.1.15,2013-07-11 16:20:00,
2013-07-11 11:30:00,81.3,49.4,30.01,NNE,16,1.0,6.0,33,0.00,,,0.00,Wunderground v.1.15,2013-07-11 16:30:00,
2013-07-11 11:39:00,81.4,35.2,30.01,NW,319,2.0,4.0,19,0.00,,,0.00,Wunderground v.1.15,2013-07-11 16:39:00,
2013-07-11 11:49:00,81.6,48.9,30.01,NNW,345,2.0,4.0,32,0.00,,,0.00,Wunderground v.1.15,2013-07-11 16:49:00,
2013-07-11 11:59:00,81.6,53.5,30.01,NNW,340,2.0,4.0,38,0.00,,,0.00,Wunderground v.1.15,2013-07-11 16:59:00,
2013-07-11 12:10:00,81.9,53.8,30.01,NNW,332,2.0,2.0,38,0.00,,,0.00,Wunderground v.1.15,2013-07-11 17:10:00,
2013-07-11 12:19:00,82.2,57.5,30.01,NNE,32,2.0,4.0,43,0.00,,,0.00,Wunderground v.1.15,2013-07-11 17:19:00,
2013-07-11 12:34:00,82.5,55.0,30.01,NNE,27,1.0,4.0,39,0.00,,,0.00,Wunderground v.1.15,2013-07-11 17:34:00,
2013-07-11 12:44:00,82.5,57.7,30.01,NNW,328,2.0,4.0,43,0.00,,,0.00,Wunderground v.1.15,2013-07-11 17:44:00,
2013-07-11 12:50:00,82.8,58.7,30.01,NE,34,1.0,4.0,44,0.00,,,0.00,Wunderground v.1.15,2013-07-11 17:50:00,
2013-07-11 12:59:00,83.4,56.5,30.01,ENE,70,1.0,1.0,40,0.00,,,0.00,Wunderground v.1.15,2013-07-11 17:59:00,
2013-07-11 13:09:00,83.7,60.1,30.01,NW,309,1.0,4.0,45,0.00,,,0.00,Wunderground v.1.15,2013-07-11 18:09:00,
2013-07-11 13:19:00,83.6,62.4,30.00,WNW,285,2.0,4.0,49,0.00,,,0.00,Wunderground v.1.15,2013-07-11 18:19:00,
2013-07-11 13:29:00,84.1,64.0,30.00,NW,326,2.0,4.0,51,0.00,,,0.00,Wunderground v.1.15,2013-07-11 18:29:00,
2013-07-11 13:40:00,83.9,63.3,30.00,NE,34,1.0,1.0,50,0.00,,,0.00,Wunderground v.1.15,2013-07-11 18:40:00,
2013-07-11 13:49:00,84.3,63.6,30.00,NNW,333,1.0,1.0,50,0.00,,,0.00,Wunderground v.1.15,2013-07-11 18:49:00,
2013-07-11 13:59:00,84.6,63.9,30.00,SW,214,1.0,4.0,50,0.00,,,0.00,Wunderground v.1.15,2013-07-11 18:59:00,
2013-07-11 14:09:00,84.7,64.0,30.00,NNE,27,1.0,1.0,50,0.00,,,0.00,Wunderground v.1.15,2013-07-11 19:09:00,
2013-07-11 14:20:00,85.0,64.8,29.99,North,360,1.0,4.0,51,0.00,,,0.00,Wunderground v.1.15,2013-07-11 19:20:00,
2013-07-11 14:29:00,84.7,64.0,30.00,NW,309,2.0,2.0,50,0.00,,,0.00,Wunderground v.1.15,2013-07-11 19:29:00,
2013-07-11 14:39:00,84.9,64.2,29.99,NW,323,1.0,1.0,50,0.00,,,0.00,Wunderground v.1.15,2013-07-11 19:39:00,
2013-07-11 14:44:00,85.0,64.3,30.00,NW,304,1.0,4.0,50,0.00,,,0.00,Wunderground v.1.15,2013-07-11 19:44:00,
2013-07-11 15:00:00,85.7,64.9,30.00,NNW,330,0.0,4.0,50,0.00,,,0.00,Wunderground v.1.15,2013-07-11 20:00:00,
2013-07-11 15:10:00,85.2,63.9,29.99,NW,309,1.0,1.0,49,0.00,,,0.00,Wunderground v.1.15,2013-07-11 20:10:00,
2013-07-11 15:19:00,85.0,63.1,29.99,North,357,2.0,4.0,48,0.00,,,0.00,Wunderground v.1.15,2013-07-11 20:19:00,
2013-07-11 15:34:00,85.3,64.0,29.98,North,5,1.0,4.0,49,0.00,,,0.00,Wunderground v.1.15,2013-07-11 20:34:00,
2013-07-11 15:45:00,85.4,64.1,29.98,NNE,13,2.0,4.0,49,0.00,,,0.00,Wunderground v.1.15,2013-07-11 20:45:00,
2013-07-11 15:55:00,85.4,63.5,29.98,West,261,1.0,4.0,48,0.00,,,0.00,Wunderground v.1.15,2013-07-11 20:55:00,
2013-07-11 16:04:00,85.3,64.0,29.98,WSW,257,1.0,4.0,49,0.00,,,0.00,Wunderground v.1.15,2013-07-11 21:04:00,
2013-07-11 16:19:00,85.5,64.7,29.98,WNW,295,1.0,5.0,50,0.00,,,0.00,Wunderground v.1.15,2013-07-11 21:19:00,
2013-07-11 16:29:00,86.0,65.8,29.97,West,278,0.0,4.0,51,0.00,,,0.00,Wunderground v.1.15,2013-07-11 21:29:00,
2013-07-11 16:35:00,85.5,64.7,29.97,NW,315,1.0,4.0,50,0.00,,,0.00,Wunderground v.1.15,2013-07-11 21:35:00,
2013-07-11 16:49:00,85.4,65.2,29.96,SSW,211,1.0,1.0,51,0.00,,,0.00,Wunderground v.1.15,2013-07-11 21:49:00,
2013-07-11 16:54:00,85.6,65.4,29.96,NW,316,1.0,4.0,51,0.00,,,0.00,Wunderground v.1.15,2013-07-11 21:54:00,
2013-07-11 17:04:00,85.4,65.8,29.96,NW,304,1.0,2.0,52,0.00,,,0.00,Wunderground v.1.15,2013-07-11 22:04:00,
2013-07-11 17:15:00,85.3,65.7,29.96,WSW,246,1.0,4.0,52,0.00,,,0.00,Wunderground v.1.15,2013-07-11 22:15:00,
2013-07-11 17:20:00,85.3,65.7,29.96,North,1,1.0,1.0,52,0.00,,,0.00,Wunderground v.1.15,2013-07-11 22:20:00,
2013-07-11 17:30:00,85.4,65.8,29.95,NW,317,0.0,4.0,52,0.00,,,0.00,Wunderground v.1.15,2013-07-11 22:30:00,
2013-07-11 17:39:00,84.7,65.7,29.95,WNW,303,1.0,1.0,53,0.00,,,0.00,Wunderground v.1.15,2013-07-11 22:39:00,
2013-07-11 17:49:00,84.9,65.9,29.95,North,8,0.0,4.0,53,0.00,,,0.00,Wunderground v.1.15,2013-07-11 22:49:00,
2013-07-11 17:59:00,84.7,65.7,29.95,East,83,1.0,4.0,53,0.00,,,0.00,Wunderground v.1.15,2013-07-11 22:59:00,
2013-07-11 18:05:00,84.7,65.7,29.95,NNE,25,0.0,4.0,53,0.00,,,0.00,Wunderground v.1.15,2013-07-11 23:05:00,
2013-07-11 18:14:00,84.7,65.7,29.94,North,360,0.0,4.0,53,0.00,,,0.00,Wunderground v.1.15,2013-07-11 23:14:00,
2013-07-11 18:24:00,84.1,65.1,29.94,NE,34,0.0,4.0,53,0.00,,,0.00,Wunderground v.1.15,2013-07-11 23:24:00,
2013-07-11 18:34:00,83.5,64.6,29.94,NNW,338,1.0,4.0,53,0.00,,,0.00,Wunderground v.1.15,2013-07-11 23:34:00,
2013-07-11 18:45:00,82.9,64.0,29.94,North,5,0.0,4.0,53,0.00,,,0.00,Wunderground v.1.15,2013-07-11 23:45:00,
2013-07-11 18:54:00,82.5,63.6,29.93,NW,320,0.0,4.0,53,0.00,,,0.00,Wunderground v.1.15,2013-07-11 23:54:00,
2013-07-11 19:04:00,82.0,63.2,29.93,North,352,0.0,4.0,53,0.00,,,0.00,Wunderground v.1.15,2013-07-12 00:04:00,
2013-07-11 19:14:00,81.5,62.2,29.94,NNE,27,0.0,4.0,52,0.00,,,0.00,Wunderground v.1.15,2013-07-12 00:14:00,
2013-07-11 19:25:00,80.8,61.0,29.94,NNE,29,1.0,4.0,51,0.00,,,0.00,Wunderground v.1.15,2013-07-12 00:25:00,
2013-07-11 19:34:00,80.1,59.8,29.94,North,354,0.0,4.0,50,0.00,,,0.00,Wunderground v.1.15,2013-07-12 00:34:00,
2013-07-11 19:44:00,79.5,58.7,29.94,WNW,290,0.0,4.0,49,0.00,,,0.00,Wunderground v.1.15,2013-07-12 00:44:00,
2013-07-11 19:54:00,79.0,57.0,29.94,NNW,331,0.0,4.0,47,0.00,,,0.00,Wunderground v.1.15,2013-07-12 00:54:00,
2013-07-11 20:04:00,78.4,54.7,29.95,NW,318,0.0,4.0,44,0.00,,,0.00,Wunderground v.1.15,2013-07-12 01:04:00,
2013-07-11 20:10:00,78.0,53.0,29.95,North,356,0.0,4.0,42,0.00,,,0.00,Wunderground v.1.15,2013-07-12 01:10:00,
2013-07-11 20:19:00,77.2,45.0,29.95,NNW,340,0.0,4.0,32,0.00,,,0.00,Wunderground v.1.15,2013-07-12 01:19:00,
2013-07-11 20:29:00,76.5,43.6,29.95,NNW,337,0.0,4.0,31,0.00,,,0.00,Wunderground v.1.15,2013-07-12 01:29:00,
2013-07-11 20:39:00,75.7,41.2,29.95,NNW,345,0.0,4.0,29,0.00,,,0.00,Wunderground v.1.15,2013-07-12 01:39:00,
2013-07-11 20:54:00,74.4,26.7,29.96,NNW,345,0.0,4.0,17,0.00,,,0.00,Wunderground v.1.15,2013-07-12 01:54:00,
2013-07-11 21:04:00,73.6,-20.1,29.96,NNW,338,0.0,4.0,2,0.00,,,0.00,Wunderground v.1.15,2013-07-12 02:04:00,
2013-07-11 21:14:00,73.0,-33.4,29.97,NW,319,0.0,4.0,1,0.00,,,0.00,Wunderground v.1.15,2013-07-12 02:14:00,
2013-07-11 21:24:00,72.6,-33.6,29.97,NNW,338,0.0,4.0,1,0.00,,,0.00,Wunderground v.1.15,2013-07-12 02:24:00,
2013-07-11 21:30:00,72.6,-33.6,29.97,NNW,337,0.0,4.0,1,0.00,,,0.00,Wunderground v.1.15,2013-07-12 02:30:00,
2013-07-11 21:39:00,72.3,-33.8,29.98,NW,318,0.0,4.0,1,0.00,,,0.00,Wunderground v.1.15,2013-07-12 02:39:00,
2013-07-11 21:54:00,71.9,-34.1,29.98,WNW,294,0.0,4.0,1,0.00,,,0.00,Wunderground v.1.15,2013-07-12 02:54:00,
2013-07-11 22:04:00,71.5,-34.3,29.98,NNW,344,0.0,4.0,1,0.00,,,0.00,Wunderground v.1.15,2013-07-12 03:04:00,
2013-07-11 22:10:00,71.5,-34.3,29.98,West,280,0.0,4.0,1,0.00,,,0.00,Wunderground v.1.15,2013-07-12 03:10:00,
2013-07-11 22:20:00,71.3,-34.4,29.99,NW,309,0.0,4.0,1,0.00,,,0.00,Wunderground v.1.15,2013-07-12 03:20:00,
2013-07-11 22:29:00,71.4,-34.4,29.99,North,350,0.0,4.0,1,0.00,,,0.00,Wunderground v.1.15,2013-07-12 03:29:00,
2013-07-11 22:39:00,71.2,-34.5,29.99,NW,326,0.0,4.0,1,0.00,,,0.00,Wunderground v.1.15,2013-07-12 03:39:00,
2013-07-11 22:50:00,71.0,-34.6,29.99,North,1,0.0,4.0,1,0.00,,,0.00,Wunderground v.1.15,2013-07-12 03:50:00,
2013-07-11 23:00:00,70.7,-34.8,29.99,WNW,290,0.0,4.0,1,0.00,,,0.00,Wunderground v.1.15,2013-07-12 04:00:00,
2013-07-11 23:04:00,70.5,-34.9,29.99,West,278,0.0,4.0,1,0.00,,,0.00,Wunderground v.1.15,2013-07-12 04:04:00,
2013-07-11 23:09:00,70.4,-35.0,29.99,NNW,330,0.0,4.0,1,0.00,,,0.00,Wunderground v.1.15,2013-07-12 04:09:00,
2013-07-11 23:14:00,70.3,-35.0,29.99,NW,318,0.0,4.0,1,0.00,,,0.00,Wunderground v.1.15,2013-07-12 04:14:00,
2013-07-11 23:19:00,70.1,-35.2,29.99,WNW,294,0.0,4.0,1,0.00,,,0.00,Wunderground v.1.15,2013-07-12 04:19:00,
2013-07-11 23:24:00,70.0,-35.2,29.99,NW,318,0.0,4.0,1,0.00,,,0.00,Wunderground v.1.15,2013-07-12 04:24:00,
2013-07-11 23:35:00,69.9,-35.3,30.00,NW,308,0.0,4.0,1,0.00,,,0.00,Wunderground v.1.15,2013-07-12 04:35:00,
2013-07-11 23:44:00,69.7,-35.4,30.00,NNW,333,0.0,4.0,1,0.00,,,0.00,Wunderground v.1.15,2013-07-12 04:44:00,
2013-07-11 23:54:00,69.6,-35.5,30.00,NW,326,0.0,4.0,1,0.00,,,0.00,Wunderground v.1.15,2013-07-12 04:54:00,
2013-07-11 23:59:00,69.3,-35.6,30.00,NW,326,0.0,4.0,1,0.00,,,0.00,Wunderground v.1.15,2013-07-12 04:59:00,